sensor_id;sensor_type;location;lat;lon;timestamp;pressure;altitude;pressure_sealevel;temperature;humidity
44926;BME280;30662;51.210;7.656;2022-10-26T00:00:29;151655.88;;;11.44;100.00
44926;BME280;30662;51.210;7.656;2022-10-26T00:02:55;151658.47;;;11.45;100.00
44926;BME280;30662;51.210;7.656;2022-10-26T00:05:22;151671.09;;;11.50;100.00
44926;BME280;30662;51.210;7.656;2022-10-26T00:07:48;151645.78;;;11.40;100.00
44926;BME280;30662;51.210;7.656;2022-10-26T00:10:14;151649.56;;;11.41;100.00
44926;BME280;30662;51.210;7.656;2022-10-26T00:12:40;151639.47;;;11.37;100.00
44926;BME280;30662;51.210;7.656;2022-10-26T00:15:07;151636.91;;;11.36;100.00
44926;BME280;30662;51.210;7.656;2022-10-26T00:17:33;151620.44;;;11.29;100.00
44926;BME280;30662;51.210;7.656;2022-10-26T00:19:59;151643.25;;;11.39;100.00
44926;BME280;30662;51.210;7.656;2022-10-26T00:22:26;151572.34;;;11.10;100.00
44926;BME280;30662;51.210;7.656;2022-10-26T00:24:51;151572.34;;;11.10;100.00
44926;BME280;30662;51.210;7.656;2022-10-26T00:27:17;151614.09;;;11.27;100.00
44926;BME280;30662;51.210;7.656;2022-10-26T00:29:43;151601.44;;;11.22;100.00
44926;BME280;30662;51.210;7.656;2022-10-26T00:32:09;151595.13;;;11.19;100.00
44926;BME280;30662;51.210;7.656;2022-10-26T00:34:35;151605.28;;;11.23;100.00
44926;BME280;30662;51.210;7.656;2022-10-26T00:37:00;151587.53;;;11.16;100.00
44926;BME280;30662;51.210;7.656;2022-10-26T00:39:26;151596.38;;;11.20;100.00
44926;BME280;30662;51.210;7.656;2022-10-26T00:41:52;151572.34;;;11.10;100.00
44926;BME280;30662;51.210;7.656;2022-10-26T00:49:48;151587.53;;;11.16;100.00
44926;BME280;30662;51.210;7.656;2022-10-26T00:52:17;151601.44;;;11.22;100.00
44926;BME280;30662;51.210;7.656;2022-10-26T00:54:44;151577.38;;;11.12;100.00
44926;BME280;30662;51.210;7.656;2022-10-26T00:57:13;151569.81;;;11.09;100.00
44926;BME280;30662;51.210;7.656;2022-10-26T00:59:40;151553.34;;;11.02;100.00
44926;BME280;30662;51.210;7.656;2022-10-26T01:02:06;151552.06;;;11.02;100.00
44926;BME280;30662;51.210;7.656;2022-10-26T01:04:33;151557.13;;;11.04;100.00
44926;BME280;30662;51.210;7.656;2022-10-26T01:07:00;151571.06;;;11.10;100.00
44926;BME280;30662;51.210;7.656;2022-10-26T01:09:28;151600.16;;;11.21;100.00
44926;BME280;30662;51.210;7.656;2022-10-26T01:11:54;151582.44;;;11.14;100.00
44926;BME280;30662;51.210;7.656;2022-10-26T01:14:20;151555.84;;;11.03;100.00
44926;BME280;30662;51.210;7.656;2022-10-26T01:17:21;151562.19;;;11.06;100.00
44926;BME280;30662;51.210;7.656;2022-10-26T01:20:12;151557.13;;;11.04;100.00
44926;BME280;30662;51.210;7.656;2022-10-26T01:31:13;151610.31;;;11.25;100.00
44926;BME280;30662;51.210;7.656;2022-10-26T01:33:59;151600.16;;;11.21;100.00
44926;BME280;30662;51.210;7.656;2022-10-26T01:37:09;151616.63;;;11.28;100.00
44926;BME280;30662;51.210;7.656;2022-10-26T01:41:58;151610.31;;;11.25;100.00
44926;BME280;30662;51.210;7.656;2022-10-26T01:44:32;151615.38;;;11.27;100.00
44926;BME280;30662;51.210;7.656;2022-10-26T01:47:05;151625.53;;;11.31;100.00
44926;BME280;30662;51.210;7.656;2022-10-26T01:49:38;151652.09;;;11.42;100.00
44926;BME280;30662;51.210;7.656;2022-10-26T01:52:05;151666.03;;;11.48;100.00
44926;BME280;30662;51.210;7.656;2022-10-26T01:54:34;151639.47;;;11.37;100.00
44926;BME280;30662;51.210;7.656;2022-10-26T01:57:08;151682.53;;;11.54;100.00
44926;BME280;30662;51.210;7.656;2022-10-26T02:21:21;151666.03;;;11.48;100.00
44926;BME280;30662;51.210;7.656;2022-10-26T02:23:51;151704.06;;;11.63;100.00
44926;BME280;30662;51.210;7.656;2022-10-26T02:26:22;151704.06;;;11.63;100.00
44926;BME280;30662;51.210;7.656;2022-10-26T02:28:53;151726.84;;;11.72;100.00
44926;BME280;30662;51.210;7.656;2022-10-26T02:31:21;151748.47;;;11.81;100.00
44926;BME280;30662;51.210;7.656;2022-10-26T02:33:49;151730.69;;;11.74;100.00
44926;BME280;30662;51.210;7.656;2022-10-26T02:36:20;151738.25;;;11.77;100.00
44926;BME280;30662;51.210;7.656;2022-10-26T02:38:48;151735.72;;;11.76;100.00
44926;BME280;30662;51.210;7.656;2022-10-26T02:41:17;151730.69;;;11.74;100.00
44926;BME280;30662;51.210;7.656;2022-10-26T02:43:50;151719.25;;;11.69;100.00
44926;BME280;30662;51.210;7.656;2022-10-26T02:46:17;151705.31;;;11.64;100.00
44926;BME280;30662;51.210;7.656;2022-10-26T02:48:45;151720.53;;;11.70;100.00
44926;BME280;30662;51.210;7.656;2022-10-26T02:51:23;151724.31;;;11.71;100.00
44926;BME280;30662;51.210;7.656;2022-10-26T02:56:56;151749.72;;;11.81;100.00
44926;BME280;30662;51.210;7.656;2022-10-26T02:59:27;151761.09;;;11.86;100.00
44926;BME280;30662;51.210;7.656;2022-10-26T03:01:55;151747.16;;;11.80;100.00
44926;BME280;30662;51.210;7.656;2022-10-26T03:04:28;151758.56;;;11.85;100.00
44926;BME280;30662;51.210;7.656;2022-10-26T03:06:54;151758.56;;;11.85;100.00
44926;BME280;30662;51.210;7.656;2022-10-26T03:09:20;151768.72;;;11.89;100.00
44926;BME280;30662;51.210;7.656;2022-10-26T03:11:50;151780.09;;;11.94;100.00
44926;BME280;30662;51.210;7.656;2022-10-26T03:14:16;151783.94;;;11.95;100.00
44926;BME280;30662;51.210;7.656;2022-10-26T03:16:42;151776.31;;;11.92;100.00
44926;BME280;30662;51.210;7.656;2022-10-26T03:19:08;151790.25;;;11.98;100.00
44926;BME280;30662;51.210;7.656;2022-10-26T03:21:34;151789.00;;;11.97;100.00
44926;BME280;30662;51.210;7.656;2022-10-26T03:23:59;151762.38;;;11.86;100.00
44926;BME280;30662;51.210;7.656;2022-10-26T03:26:25;151783.94;;;11.95;100.00
44926;BME280;30662;51.210;7.656;2022-10-26T03:28:51;151808.00;;;12.05;100.00
44926;BME280;30662;51.210;7.656;2022-10-26T03:31:17;151802.97;;;12.03;100.00
44926;BME280;30662;51.210;7.656;2022-10-26T03:33:43;151806.75;;;12.04;100.00
44926;BME280;30662;51.210;7.656;2022-10-26T03:36:09;151818.13;;;12.09;100.00
44926;BME280;30662;51.210;7.656;2022-10-26T03:38:35;151827.00;;;12.12;100.00
44926;BME280;30662;51.210;7.656;2022-10-26T03:41:01;151849.81;;;12.22;100.00
44926;BME280;30662;51.210;7.656;2022-10-26T03:43:27;151830.81;;;12.14;100.00
44926;BME280;30662;51.210;7.656;2022-10-26T03:45:52;151842.22;;;12.19;100.00
44926;BME280;30662;51.210;7.656;2022-10-26T03:48:18;151853.59;;;12.23;100.00
44926;BME280;30662;51.210;7.656;2022-10-26T03:50:44;151861.25;;;12.26;100.00
44926;BME280;30662;51.210;7.656;2022-10-26T03:53:10;151866.31;;;12.28;100.00
44926;BME280;30662;51.210;7.656;2022-10-26T03:55:36;151886.56;;;12.36;100.00
44926;BME280;30662;51.210;7.656;2022-10-26T03:58:03;151890.38;;;12.38;100.00
44926;BME280;30662;51.210;7.656;2022-10-26T04:00:29;151894.22;;;12.39;100.00
44926;BME280;30662;51.210;7.656;2022-10-26T04:02:57;151892.94;;;12.39;100.00
44926;BME280;30662;51.210;7.656;2022-10-26T04:05:24;151894.22;;;12.39;100.00
44926;BME280;30662;51.210;7.656;2022-10-26T04:07:56;151913.22;;;12.47;100.00
44926;BME280;30662;51.210;7.656;2022-10-26T04:10:23;151913.22;;;12.47;100.00
44926;BME280;30662;51.210;7.656;2022-10-26T04:12:49;151903.06;;;12.43;100.00
44926;BME280;30662;51.210;7.656;2022-10-26T04:15:16;151895.47;;;12.40;100.00
44926;BME280;30662;51.210;7.656;2022-10-26T04:17:42;151890.38;;;12.38;100.00
44926;BME280;30662;51.210;7.656;2022-10-26T04:20:08;151925.88;;;12.52;100.00
44926;BME280;30662;51.210;7.656;2022-10-26T04:22:34;151939.81;;;12.58;100.00
44926;BME280;30662;51.210;7.656;2022-10-26T04:25:04;151928.44;;;12.53;100.00
44926;BME280;30662;51.210;7.656;2022-10-26T04:27:31;151906.84;;;12.45;100.00
44926;BME280;30662;51.210;7.656;2022-10-26T04:29:57;151898.00;;;12.41;100.00
44926;BME280;30662;51.210;7.656;2022-10-26T04:32:23;151894.22;;;12.39;100.00
44926;BME280;30662;51.210;7.656;2022-10-26T04:34:49;151918.28;;;12.49;100.00
44926;BME280;30662;51.210;7.656;2022-10-26T04:37:15;151911.94;;;12.47;100.00
44926;BME280;30662;51.210;7.656;2022-10-26T04:39:40;151929.69;;;12.54;100.00
44926;BME280;30662;51.210;7.656;2022-10-26T04:42:06;151903.06;;;12.43;100.00
44926;BME280;30662;51.210;7.656;2022-10-26T04:44:32;151889.09;;;12.37;100.00
44926;BME280;30662;51.210;7.656;2022-10-26T04:46:58;151901.78;;;12.42;100.00
44926;BME280;30662;51.210;7.656;2022-10-26T04:49:24;151884.03;;;12.35;100.00
44926;BME280;30662;51.210;7.656;2022-10-26T04:51:49;151886.56;;;12.36;100.00
44926;BME280;30662;51.210;7.656;2022-10-26T04:54:15;151865.03;;;12.28;100.00
44926;BME280;30662;51.210;7.656;2022-10-26T04:56:41;151870.09;;;12.30;100.00
44926;BME280;30662;51.210;7.656;2022-10-26T04:59:07;151857.44;;;12.25;100.00
44926;BME280;30662;51.210;7.656;2022-10-26T05:01:33;151851.09;;;12.22;100.00
44926;BME280;30662;51.210;7.656;2022-10-26T05:03:59;151833.34;;;12.15;100.00
44926;BME280;30662;51.210;7.656;2022-10-26T05:06:24;151852.34;;;12.23;100.00
44926;BME280;30662;51.210;7.656;2022-10-26T05:08:50;151846.03;;;12.20;100.00
44926;BME280;30662;51.210;7.656;2022-10-26T05:11:16;151849.81;;;12.22;100.00
44926;BME280;30662;51.210;7.656;2022-10-26T05:13:42;151844.75;;;12.20;100.00
44926;BME280;30662;51.210;7.656;2022-10-26T05:16:08;151838.44;;;12.17;100.00
44926;BME280;30662;51.210;7.656;2022-10-26T05:18:34;151833.34;;;12.15;100.00
44926;BME280;30662;51.210;7.656;2022-10-26T05:21:00;151834.59;;;12.15;100.00
44926;BME280;30662;51.210;7.656;2022-10-26T05:23:25;151838.44;;;12.17;100.00
44926;BME280;30662;51.210;7.656;2022-10-26T05:25:51;151829.53;;;12.13;100.00
44926;BME280;30662;51.210;7.656;2022-10-26T05:28:17;151838.44;;;12.17;100.00
44926;BME280;30662;51.210;7.656;2022-10-26T05:30:44;151851.09;;;12.22;100.00
44926;BME280;30662;51.210;7.656;2022-10-26T05:33:11;151825.75;;;12.12;100.00
44926;BME280;30662;51.210;7.656;2022-10-26T05:35:38;151819.38;;;12.09;100.00
44926;BME280;30662;51.210;7.656;2022-10-26T05:38:12;151842.22;;;12.19;100.00
44926;BME280;30662;51.210;7.656;2022-10-26T05:40:45;151816.84;;;12.08;100.00
44926;BME280;30662;51.210;7.656;2022-10-26T05:43:11;151835.88;;;12.16;100.00
44926;BME280;30662;51.210;7.656;2022-10-26T05:45:38;151834.59;;;12.15;100.00
44926;BME280;30662;51.210;7.656;2022-10-26T05:48:04;151873.94;;;12.31;100.00
44926;BME280;30662;51.210;7.656;2022-10-26T05:50:30;151876.47;;;12.32;100.00
44926;BME280;30662;51.210;7.656;2022-10-26T05:52:56;151875.19;;;12.32;100.00
44926;BME280;30662;51.210;7.656;2022-10-26T05:55:22;151885.31;;;12.36;100.00
44926;BME280;30662;51.210;7.656;2022-10-26T05:57:48;151879.00;;;12.33;100.00
44926;BME280;30662;51.210;7.656;2022-10-26T06:00:17;151910.69;;;12.46;100.00
44926;BME280;30662;51.210;7.656;2022-10-26T06:02:54;151915.75;;;12.48;100.00
44926;BME280;30662;51.210;7.656;2022-10-26T06:05:27;151913.22;;;12.47;100.00
44926;BME280;30662;51.210;7.656;2022-10-26T06:07:53;151913.22;;;12.47;100.00
44926;BME280;30662;51.210;7.656;2022-10-26T06:10:19;151924.59;;;12.52;100.00
44926;BME280;30662;51.210;7.656;2022-10-26T06:12:45;151911.94;;;12.47;100.00
44926;BME280;30662;51.210;7.656;2022-10-26T06:15:17;151930.97;;;12.54;100.00
44926;BME280;30662;51.210;7.656;2022-10-26T06:18:01;151941.09;;;12.58;100.00
44926;BME280;30662;51.210;7.656;2022-10-26T06:20:50;151919.53;;;12.50;100.00
44926;BME280;30662;51.210;7.656;2022-10-26T06:23:36;151908.13;;;12.45;100.00
44926;BME280;30662;51.210;7.656;2022-10-26T06:26:12;151952.50;;;12.63;100.00
44926;BME280;30662;51.210;7.656;2022-10-26T06:31:19;151951.25;;;12.62;100.00
44926;BME280;30662;51.210;7.656;2022-10-26T06:33:45;151962.63;;;12.67;100.00
44926;BME280;30662;51.210;7.656;2022-10-26T06:36:21;151969.00;;;12.69;100.00
44926;BME280;30662;51.210;7.656;2022-10-26T06:38:51;151965.19;;;12.68;100.00
44926;BME280;30662;51.210;7.656;2022-10-26T06:41:19;151975.31;;;12.72;100.00
44926;BME280;30662;51.210;7.656;2022-10-26T06:43:47;151970.25;;;12.70;100.00
44926;BME280;30662;51.210;7.656;2022-10-26T06:46:28;151976.59;;;12.73;100.00
44926;BME280;30662;51.210;7.656;2022-10-26T06:51:52;151996.88;;;12.81;100.00
44926;BME280;30662;51.210;7.656;2022-10-26T06:54:26;152017.16;;;12.89;100.00
44926;BME280;30662;51.210;7.656;2022-10-26T06:56:54;152027.31;;;12.93;99.65
44926;BME280;30662;51.210;7.656;2022-10-26T06:59:51;152050.13;;;13.02;98.62
44926;BME280;30662;51.210;7.656;2022-10-26T07:02:18;152036.22;;;12.96;98.58
44926;BME280;30662;51.210;7.656;2022-10-26T07:04:45;152041.28;;;12.98;97.13
44926;BME280;30662;51.210;7.656;2022-10-26T07:07:13;152074.25;;;13.12;96.61
44926;BME280;30662;51.210;7.656;2022-10-26T07:09:40;152088.16;;;13.17;96.20
44926;BME280;30662;51.210;7.656;2022-10-26T07:12:06;152075.50;;;13.12;96.17
44926;BME280;30662;51.210;7.656;2022-10-26T07:14:32;152093.28;;;13.19;95.87
44926;BME280;30662;51.210;7.656;2022-10-26T07:16:57;152112.34;;;13.27;95.80
44926;BME280;30662;51.210;7.656;2022-10-26T07:19:23;152094.59;;;13.20;96.25
44926;BME280;30662;51.210;7.656;2022-10-26T07:21:49;152081.84;;;13.15;97.39
44926;BME280;30662;51.210;7.656;2022-10-26T07:24:15;152081.84;;;13.15;97.18
44926;BME280;30662;51.210;7.656;2022-10-26T07:26:41;152103.44;;;13.23;96.54
44926;BME280;30662;51.210;7.656;2022-10-26T07:29:06;152085.63;;;13.16;96.66
44926;BME280;30662;51.210;7.656;2022-10-26T07:31:32;152086.91;;;13.17;96.42
44926;BME280;30662;51.210;7.656;2022-10-26T07:33:58;152089.44;;;13.18;96.79
44926;BME280;30662;51.210;7.656;2022-10-26T07:36:24;152119.94;;;13.30;95.72
44926;BME280;30662;51.210;7.656;2022-10-26T07:38:51;152126.31;;;13.33;95.86
44926;BME280;30662;51.210;7.656;2022-10-26T07:41:17;152109.81;;;13.26;96.76
44926;BME280;30662;51.210;7.656;2022-10-26T07:43:43;152136.44;;;13.37;97.13
44926;BME280;30662;51.210;7.656;2022-10-26T07:46:11;152132.63;;;13.35;97.60
44926;BME280;30662;51.210;7.656;2022-10-26T07:48:37;152132.63;;;13.35;97.81
44926;BME280;30662;51.210;7.656;2022-10-26T07:51:04;152142.75;;;13.39;98.12
44926;BME280;30662;51.210;7.656;2022-10-26T07:53:30;152125.00;;;13.32;98.70
44926;BME280;30662;51.210;7.656;2022-10-26T07:55:56;152169.41;;;13.50;98.48
44926;BME280;30662;51.210;7.656;2022-10-26T07:58:22;152157.97;;;13.45;99.03
44926;BME280;30662;51.210;7.656;2022-10-26T08:00:51;152180.84;;;13.55;98.92
44926;BME280;30662;51.210;7.656;2022-10-26T08:03:18;152180.84;;;13.55;99.71
44926;BME280;30662;51.210;7.656;2022-10-26T08:05:45;152174.47;;;13.52;100.00
44926;BME280;30662;51.210;7.656;2022-10-26T08:08:12;152132.63;;;13.35;100.00
44926;BME280;30662;51.210;7.656;2022-10-26T08:10:43;152108.56;;;13.26;100.00
44926;BME280;30662;51.210;7.656;2022-10-26T08:13:09;152126.31;;;13.33;100.00
44926;BME280;30662;51.210;7.656;2022-10-26T08:15:35;152123.72;;;13.32;100.00
44926;BME280;30662;51.210;7.656;2022-10-26T08:18:02;152127.56;;;13.33;100.00
44926;BME280;30662;51.210;7.656;2022-10-26T08:20:28;152170.69;;;13.50;100.00
44926;BME280;30662;51.210;7.656;2022-10-26T08:22:58;152152.91;;;13.43;100.00
44926;BME280;30662;51.210;7.656;2022-10-26T08:25:24;152169.41;;;13.50;100.00
44926;BME280;30662;51.210;7.656;2022-10-26T08:27:50;152164.34;;;13.48;100.00
44926;BME280;30662;51.210;7.656;2022-10-26T08:30:16;152166.88;;;13.49;100.00
44926;BME280;30662;51.210;7.656;2022-10-26T08:32:42;152202.41;;;13.63;100.00
44926;BME280;30662;51.210;7.656;2022-10-26T08:35:08;152218.91;;;13.70;100.00
44926;BME280;30662;51.210;7.656;2022-10-26T08:37:35;152244.25;;;13.80;100.00
44926;BME280;30662;51.210;7.656;2022-10-26T08:40:02;152253.16;;;13.84;100.00
44926;BME280;30662;51.210;7.656;2022-10-26T08:42:30;152204.94;;;13.64;100.00
44926;BME280;30662;51.210;7.656;2022-10-26T08:45:02;152218.91;;;13.70;100.00
44926;BME280;30662;51.210;7.656;2022-10-26T08:47:35;152227.75;;;13.73;100.00
44926;BME280;30662;51.210;7.656;2022-10-26T08:50:18;152248.06;;;13.82;100.00
44926;BME280;30662;51.210;7.656;2022-10-26T08:53:01;152288.69;;;13.98;100.00
44926;BME280;30662;51.210;7.656;2022-10-26T08:56:02;152302.63;;;14.03;100.00
44926;BME280;30662;51.210;7.656;2022-10-26T08:58:40;152303.88;;;14.04;100.00
44926;BME280;30662;51.210;7.656;2022-10-26T09:01:10;152295.03;;;14.00;100.00
44926;BME280;30662;51.210;7.656;2022-10-26T09:03:36;152289.97;;;13.98;100.00
44926;BME280;30662;51.210;7.656;2022-10-26T09:06:24;152328.03;;;14.14;100.00
44926;BME280;30662;51.210;7.656;2022-10-26T09:14:27;152392.75;;;14.40;100.00
44926;BME280;30662;51.210;7.656;2022-10-26T09:22:57;152556.56;;;15.05;100.00
44926;BME280;30662;51.210;7.656;2022-10-26T09:25:42;152588.34;;;15.18;99.23
44926;BME280;30662;51.210;7.656;2022-10-26T09:28:15;152616.28;;;15.29;98.08
44926;BME280;30662;51.210;7.656;2022-10-26T09:30:45;152672.19;;;15.52;97.08
44926;BME280;30662;51.210;7.656;2022-10-26T09:33:22;152808.16;;;16.06;93.72
44926;BME280;30662;51.210;7.656;2022-10-26T09:35:51;152977.28;;;16.74;89.57
44926;BME280;30662;51.210;7.656;2022-10-26T09:38:33;153216.38;;;17.70;84.07
44926;BME280;30662;51.210;7.656;2022-10-26T09:41:28;153944.91;;;20.61;67.97
44926;BME280;30662;51.210;7.656;2022-10-26T09:44:24;154803.75;;;24.04;53.34
44926;BME280;30662;51.210;7.656;2022-10-26T09:47:04;154991.63;;;24.79;49.32
44926;BME280;30662;51.210;7.656;2022-10-26T09:49:55;154820.38;;;24.10;49.75
44926;BME280;30662;51.210;7.656;2022-10-26T09:52:23;154706.72;;;23.65;50.85
44926;BME280;30662;51.210;7.656;2022-10-26T09:54:49;154833.16;;;24.15;49.66
44926;BME280;30662;51.210;7.656;2022-10-26T09:57:17;155091.31;;;25.18;47.48
44926;BME280;30662;51.210;7.656;2022-10-26T09:59:45;155466.06;;;26.67;43.94
44926;BME280;30662;51.210;7.656;2022-10-26T10:02:32;156057.56;;;29.03;38.49
44926;BME280;30662;51.210;7.656;2022-10-26T10:04:59;156167.72;;;29.47;36.73
44926;BME280;30662;51.210;7.656;2022-10-26T10:07:25;156577.97;;;31.10;33.61
44926;BME280;30662;51.210;7.656;2022-10-26T10:10:26;156784.53;;;31.92;30.98
44926;BME280;30662;51.210;7.656;2022-10-26T10:12:52;156866.63;;;32.24;30.92
44926;BME280;30662;51.210;7.656;2022-10-26T10:15:23;156588.22;;;31.14;32.00
44926;BME280;30662;51.210;7.656;2022-10-26T10:17:51;157045.03;;;32.95;29.57
44926;BME280;30662;51.210;7.656;2022-10-26T10:20:21;157068.19;;;33.04;28.46
44926;BME280;30662;51.210;7.656;2022-10-26T10:22:59;157412.38;;;34.41;27.00
44926;BME280;30662;51.210;7.656;2022-10-26T10:25:34;157778.59;;;35.86;24.84
44926;BME280;30662;51.210;7.656;2022-10-26T10:28:02;157629.47;;;35.27;25.33
44926;BME280;30662;51.210;7.656;2022-10-26T10:30:51;157155.47;;;33.39;27.50
44926;BME280;30662;51.210;7.656;2022-10-26T10:33:17;157307.03;;;33.99;27.05
44926;BME280;30662;51.210;7.656;2022-10-26T10:35:50;157414.94;;;34.42;26.44
44926;BME280;30662;51.210;7.656;2022-10-26T10:38:19;157459.88;;;34.60;26.26
44926;BME280;30662;51.210;7.656;2022-10-26T10:40:54;157548.56;;;34.95;25.61
44926;BME280;30662;51.210;7.656;2022-10-26T10:43:21;157145.19;;;33.35;27.50
44926;BME280;30662;51.210;7.656;2022-10-26T10:45:50;157666.75;;;35.42;24.97
44926;BME280;30662;51.210;7.656;2022-10-26T10:48:22;156992.44;;;32.74;28.71
44926;BME280;30662;51.210;7.656;2022-10-26T10:50:57;156942.38;;;32.54;28.74
44926;BME280;30662;51.210;7.656;2022-10-26T10:56:18;157664.19;;;35.41;25.22
44926;BME280;30662;51.210;7.656;2022-10-26T11:01:21;157797.91;;;35.94;24.04
44926;BME280;30662;51.210;7.656;2022-10-26T11:06:26;157925.19;;;36.44;23.87
44926;BME280;30662;51.210;7.656;2022-10-26T11:09:04;158193.97;;;37.50;22.40
44926;BME280;30662;51.210;7.656;2022-10-26T11:16:38;157967.59;;;36.61;22.90
44926;BME280;30662;51.210;7.656;2022-10-26T11:19:24;157418.78;;;34.43;26.48
44926;BME280;30662;51.210;7.656;2022-10-26T11:21:54;157482.97;;;34.69;26.45
44926;BME280;30662;51.210;7.656;2022-10-26T11:24:33;157363.53;;;34.21;26.33
44926;BME280;30662;51.210;7.656;2022-10-26T11:27:07;157247.94;;;33.76;27.20
44926;BME280;30662;51.210;7.656;2022-10-26T11:30:03;157666.75;;;35.42;25.13
44926;BME280;30662;51.210;7.656;2022-10-26T11:32:41;157363.53;;;34.21;26.43
44926;BME280;30662;51.210;7.656;2022-10-26T11:38:14;157308.31;;;33.99;27.07
44926;BME280;30662;51.210;7.656;2022-10-26T11:41:35;157105.41;;;33.19;28.33
44926;BME280;30662;51.210;7.656;2022-10-26T11:46:44;156864.09;;;32.23;29.79
44926;BME280;30662;51.210;7.656;2022-10-26T11:51:43;157106.69;;;33.19;28.51
44926;BME280;30662;51.210;7.656;2022-10-26T11:54:15;157357.13;;;34.19;27.20
44926;BME280;30662;51.210;7.656;2022-10-26T11:56:48;157652.63;;;35.36;25.53
44926;BME280;30662;51.210;7.656;2022-10-26T11:59:19;157774.69;;;35.84;24.49
44926;BME280;30662;51.210;7.656;2022-10-26T12:01:50;157711.75;;;35.59;25.13
44926;BME280;30662;51.210;7.656;2022-10-26T12:04:19;157587.06;;;35.10;25.49
44926;BME280;30662;51.210;7.656;2022-10-26T12:06:48;157101.56;;;33.17;28.35
44926;BME280;30662;51.210;7.656;2022-10-26T12:09:19;157077.13;;;33.08;27.82
44926;BME280;30662;51.210;7.656;2022-10-26T12:11:54;157327.56;;;34.07;26.95
44926;BME280;30662;51.210;7.656;2022-10-26T12:14:29;157416.22;;;34.42;26.46
44926;BME280;30662;51.210;7.656;2022-10-26T12:17:07;156711.38;;;31.63;30.54
44926;BME280;30662;51.210;7.656;2022-10-26T12:19:42;156492.06;;;30.75;32.32
44926;BME280;30662;51.210;7.656;2022-10-26T12:22:13;156730.59;;;31.70;31.01
44926;BME280;30662;51.210;7.656;2022-10-26T12:24:45;156417.69;;;30.46;32.54
44926;BME280;30662;51.210;7.656;2022-10-26T12:30:23;155873.06;;;28.29;37.06
44926;BME280;30662;51.210;7.656;2022-10-26T12:33:00;155286.97;;;25.96;42.07
44926;BME280;30662;51.210;7.656;2022-10-26T12:35:44;155027.41;;;24.93;46.07
44926;BME280;30662;51.210;7.656;2022-10-26T12:41:06;155879.56;;;28.32;39.10
44926;BME280;30662;51.210;7.656;2022-10-26T12:43:34;155372.66;;;26.30;42.95
44926;BME280;30662;51.210;7.656;2022-10-26T12:48:46;155586.34;;;27.15;42.08
44926;BME280;30662;51.210;7.656;2022-10-26T12:54:30;155344.50;;;26.19;44.02
44926;BME280;30662;51.210;7.656;2022-10-26T12:57:23;155349.59;;;26.21;43.90
44926;BME280;30662;51.210;7.656;2022-10-26T13:00:03;155581.22;;;27.13;42.24
44926;BME280;30662;51.210;7.656;2022-10-26T13:02:34;155756.59;;;27.83;40.13
44926;BME280;30662;51.210;7.656;2022-10-26T13:08:10;155505.72;;;26.83;42.26
44926;BME280;30662;51.210;7.656;2022-10-26T13:10:42;155412.34;;;26.46;43.02
44926;BME280;30662;51.210;7.656;2022-10-26T13:13:22;155174.44;;;25.51;45.50
44926;BME280;30662;51.210;7.656;2022-10-26T13:15:54;154637.72;;;23.37;51.41
44926;BME280;30662;51.210;7.656;2022-10-26T13:18:21;154313.50;;;22.08;57.33
44926;BME280;30662;51.210;7.656;2022-10-26T13:23:27;154171.94;;;21.52;61.48
44926;BME280;30662;51.210;7.656;2022-10-26T13:26:11;154183.38;;;21.56;61.87
44926;BME280;30662;51.210;7.656;2022-10-26T13:31:09;154022.66;;;20.92;67.16
44926;BME280;30662;51.210;7.656;2022-10-26T13:33:37;153997.19;;;20.82;67.10
44926;BME280;30662;51.210;7.656;2022-10-26T13:36:18;153942.38;;;20.60;69.17
44926;BME280;30662;51.210;7.656;2022-10-26T13:38:48;153762.66;;;19.88;72.01
44926;BME280;30662;51.210;7.656;2022-10-26T13:41:35;153733.34;;;19.76;73.38
44926;BME280;30662;51.210;7.656;2022-10-26T13:44:05;153712.97;;;19.68;74.21
44926;BME280;30662;51.210;7.656;2022-10-26T13:46:35;153715.50;;;19.69;75.24
44926;BME280;30662;51.210;7.656;2022-10-26T13:49:06;153641.59;;;19.40;75.79
44926;BME280;30662;51.210;7.656;2022-10-26T13:51:42;153639.03;;;19.39;76.74
44926;BME280;30662;51.210;7.656;2022-10-26T13:54:24;153648.00;;;19.42;76.89
44926;BME280;30662;51.210;7.656;2022-10-26T13:57:01;153621.22;;;19.32;77.77
44926;BME280;30662;51.210;7.656;2022-10-26T13:59:31;153524.47;;;18.93;79.50
44926;BME280;30662;51.210;7.656;2022-10-26T14:04:47;153527.00;;;18.94;80.65
44926;BME280;30662;51.210;7.656;2022-10-26T14:07:23;153546.09;;;19.01;80.52
44926;BME280;30662;51.210;7.656;2022-10-26T14:09:55;153501.56;;;18.84;81.49
44926;BME280;30662;51.210;7.656;2022-10-26T14:12:23;153528.28;;;18.94;80.93
44926;BME280;30662;51.210;7.656;2022-10-26T14:14:51;153521.91;;;18.92;81.24
44926;BME280;30662;51.210;7.656;2022-10-26T14:17:23;153485.00;;;18.77;82.73
44926;BME280;30662;51.210;7.656;2022-10-26T14:19:51;153490.09;;;18.79;82.51
44926;BME280;30662;51.210;7.656;2022-10-26T14:22:22;153464.63;;;18.69;82.91
44926;BME280;30662;51.210;7.656;2022-10-26T14:24:54;153469.72;;;18.71;83.66
44926;BME280;30662;51.210;7.656;2022-10-26T14:27:27;153498.97;;;18.83;83.29
44926;BME280;30662;51.210;7.656;2022-10-26T14:29:55;153490.09;;;18.79;84.21
44926;BME280;30662;51.210;7.656;2022-10-26T14:32:42;153464.63;;;18.69;84.46
44926;BME280;30662;51.210;7.656;2022-10-26T14:35:12;153495.16;;;18.81;83.42
44926;BME280;30662;51.210;7.656;2022-10-26T14:38:02;153481.13;;;18.76;84.18
44926;BME280;30662;51.210;7.656;2022-10-26T14:40:33;153485.00;;;18.77;84.76
44926;BME280;30662;51.210;7.656;2022-10-26T14:43:01;153449.31;;;18.63;85.69
44926;BME280;30662;51.210;7.656;2022-10-26T14:45:30;153420.00;;;18.51;86.51